Date,TemperatureHighF,TemperatureAvgF,TemperatureLowF,DewpointHighF,DewpointAvgF,DewpointLowF,HumidityHigh,HumidityAvg,HumidityLow,PressureMaxIn,PressureMinIn,WindSpeedMaxMPH,WindSpeedAvgMPH,GustSpeedMaxMPH,PrecipitationSumIn
2014-1-1,78.8,65.1,45.9,38.6,25.4,16.5,41,23,16,30.20,30.01,13,5,16,0.00
2014-1-2,79.5,67.2,52.0,34.7,27.2,19.9,36,23,16,30.16,29.99,10,4,13,0.00
2014-1-3,77.0,59.8,48.4,38.7,29.8,24.3,51,34,19,30.11,29.90,5,2,8,0.00
2014-1-4,70.9,59.2,48.4,46.9,30.3,20.4,55,35,19,30.07,29.92,8,2,9,0.24
2014-1-5,70.7,63.9,58.3,24.5,22.9,21.6,24,21,17,30.15,30.03,18,8,21,0.00
2014-1-6,76.3,62.0,48.4,29.7,22.0,15.1,26,22,16,30.22,30.09,19,7,24,0.01
2014-1-7,72.5,56.9,45.3,31.3,21.2,13.2,37,26,16,30.20,30.02,5,2,8,0.00
2014-1-8,68.9,53.9,42.8,48.5,31.6,17.1,92,46,22,30.17,29.99,4,2,7,0.00
2014-1-9,65.5,51.0,42.1,48.3,39.8,31.3,99,68,30,30.13,29.98,5,2,10,0.00
2014-1-10,75.2,60.5,44.6,48.4,35.9,25.5,74,42,22,30.17,30.00,6,2,8,0.00
2014-1-11,77.7,60.7,47.7,40.5,34.5,24.4,68,40,19,30.19,30.05,7,2,10,0.00
2014-1-12,72.0,54.1,43.7,43.1,35.5,31.8,69,52,24,30.14,30.05,4,2,5,0.00
2014-1-13,72.7,66.5,61.9,24.2,23.1,20.4,22,19,16,30.33,30.25,14,8,20,0.06
2014-1-14,76.5,68.4,62.4,29.8,24.7,22.4,22,19,16,30.31,30.20,15,9,26,0.00
2014-1-15,79.0,70.5,64.8,30.0,25.2,22.7,20,18,16,30.25,30.12,17,12,27,0.02
2014-1-16,79.3,71.0,65.3,30.1,25.2,22.9,20,18,16,30.14,30.04,15,9,26,0.00
2014-1-17,86.2,70.1,56.5,36.2,25.7,21.1,25,19,15,30.16,29.99,13,7,20,0.00
2014-1-18,81.3,69.2,56.8,30.8,25.2,21.1,26,19,15,30.13,29.98,8,4,11,0.00
2014-1-19,81.0,66.6,51.1,30.5,24.3,16.8,26,20,15,30.19,30.04,8,3,10,0.00
2014-1-20,80.8,66.6,48.9,31.5,24.5,16.0,28,21,15,30.20,30.04,11,3,14,0.00
2014-1-21,77.0,68.0,57.2,29.9,24.4,20.7,24,19,16,30.22,30.05,13,4,17,0.00
2014-1-22,77.0,63.6,46.9,36.1,26.1,17.1,47,25,17,30.11,29.88,5,2,8,0.00
2014-1-23,74.1,62.9,49.1,44.3,26.7,17.2,46,26,16,30.12,29.89,11,4,16,0.00
2014-1-24,71.4,62.7,58.6,61.7,26.2,19.0,97,26,17,30.24,30.11,14,6,19,0.00
2014-1-25,72.3,60.8,46.4,41.2,30.8,21.9,66,35,17,30.26,30.10,9,3,12,0.00
2014-1-26,68.4,54.3,45.3,46.3,41.5,36.2,84,63,41,30.24,30.06,4,2,7,0.00
2014-1-27,68.7,55.3,45.9,51.4,45.5,39.4,95,71,50,30.17,29.99,8,3,10,0.00
2014-1-28,75.2,60.3,45.7,50.2,39.0,27.4,88,48,21,30.16,30.01,7,2,9,0.00
2014-1-29,78.1,63.2,51.8,47.9,36.0,25.2,69,39,20,30.15,29.93,6,2,10,0.00
2014-1-30,60.3,53.2,49.3,51.6,44.0,31.2,99,75,34,30.00,29.92,10,3,11,0.15
2014-1-31,54.9,46.1,36.1,50.3,44.3,35.4,99,94,63,30.06,29.93,9,4,13,0.22
2014-2-1,58.6,46.3,34.3,39.6,24.8,11.3,99,49,22,30.18,29.98,13,4,26,0.00
2014-2-2,59.4,46.8,35.8,43.8,28.7,10.7,97,55,23,30.15,30.00,10,3,15,0.00
2014-2-3,54.5,45.0,35.8,44.1,40.3,35.0,99,85,60,30.10,29.91,7,3,12,0.01
2014-2-4,52.7,44.6,34.5,44.3,40.6,34.0,99,87,62,30.16,30.02,6,2,8,0.00
2014-2-5,58.6,46.5,37.9,43.3,40.5,37.4,99,82,48,30.16,30.02,7,2,11,0.00
2014-2-6,51.4,45.9,42.1,47.4,43.8,40.4,99,92,80,30.13,30.02,8,2,15,0.18
2014-2-7,56.7,48.3,43.0,50.6,46.2,42.5,99,93,69,30.27,30.08,5,2,8,0.08
2014-2-8,64.0,49.3,37.9,48.3,43.6,37.7,99,84,51,30.30,30.17,6,2,8,0.00
2014-2-9,61.9,49.8,41.9,50.6,46.8,41.6,99,91,62,30.29,30.11,5,2,8,0.00
2014-2-10,66.7,53.7,43.5,52.5,48.1,38.3,99,83,45,30.21,30.01,9,3,16,0.00
2014-2-11,76.6,64.6,53.6,46.6,36.1,26.1,58,36,18,30.14,30.02,12,4,17,0.00
2014-2-12,79.5,65.4,53.1,43.9,32.5,22.6,51,31,17,30.18,30.02,8,3,11,0.00
2014-2-13,84.7,66.9,52.7,39.7,29.3,17.0,39,25,16,30.15,29.95,7,2,9,0.00
2014-2-14,85.8,69.4,53.4,41.6,31.5,22.6,43,26,15,30.12,29.95,5,2,8,0.00
2014-2-15,84.7,67.8,53.8,38.6,30.1,22.8,37,25,16,30.08,29.96,7,2,9,0.00
2014-2-16,77.9,62.4,50.2,45.2,30.9,16.6,57,32,17,30.16,29.96,7,2,10,0.00
2014-2-17,73.6,59.0,47.5,49.2,39.2,28.3,88,51,21,30.15,29.97,9,2,12,0.00
2014-2-18,71.6,57.0,43.0,49.5,40.7,20.4,85,57,27,30.10,29.95,6,2,8,0.00
2014-2-19,67.5,53.3,43.7,50.4,41.7,20.0,91,66,33,30.05,29.89,7,2,11,0.00
2014-2-20,81.5,67.8,47.3,44.5,30.6,22.1,90,27,16,30.04,29.92,16,6,21,0.00
2014-2-21,77.5,65.6,51.4,34.1,27.9,21.4,46,25,18,30.04,29.87,8,3,10,0.00
2014-2-22,73.4,60.2,46.4,36.9,26.9,22.8,43,29,18,30.03,29.86,6,3,8,0.00
2014-2-23,73.2,58.8,45.7,41.1,32.5,23.9,67,39,19,30.08,29.89,7,2,9,0.00
2014-2-24,77.4,59.6,46.4,44.7,36.0,28.6,74,44,20,30.10,29.91,5,2,8,0.00
2014-2-25,72.0,56.2,44.4,48.0,42.2,31.1,99,64,23,30.13,29.95,10,2,12,0.00
2014-2-26,59.2,51.2,45.7,50.0,46.8,43.2,99,86,61,30.14,30.04,7,2,12,0.00
2014-2-27,66.6,54.4,48.9,56.7,50.5,44.5,99,88,58,30.08,29.89,8,3,11,0.47
2014-2-28,55.4,51.7,46.4,55.1,51.1,46.1,99,98,96,29.92,29.71,16,7,24,4.71
2014-3-1,52.2,48.0,45.0,51.0,47.4,44.2,99,98,91,30.03,29.82,11,3,19,0.84
2014-3-2,54.9,48.6,43.7,52.0,47.1,43.2,99,95,76,30.22,30.04,6,2,8,0.14
2014-3-3,66.7,52.3,41.5,53.3,47.3,41.3,99,85,54,30.20,30.02,7,2,8,0.00
2014-3-4,63.3,51.4,42.8,55.7,48.1,42.3,99,90,62,30.13,29.97,6,2,8,0.01
2014-3-5,78.8,61.7,45.5,54.9,46.3,38.4,99,63,24,30.12,30.00,6,2,9,0.00
2014-3-6,71.6,58.1,46.8,59.4,49.4,39.7,99,75,39,30.15,29.97,8,3,10,0.00
2014-3-7,69.3,59.6,46.0,55.3,44.4,22.1,99,65,21,30.06,29.91,12,4,22,0.01
2014-3-8,77.9,66.6,55.9,33.7,26.2,22.0,42,22,17,30.18,29.99,16,6,23,0.04
2014-3-9,81.5,67.2,54.7,31.7,26.4,22.0,33,22,16,30.19,30.05,10,5,16,0.00
2014-3-10,78.6,61.9,49.5,36.9,29.4,25.0,53,31,17,30.17,29.99,11,3,16,0.00
2014-3-11,75.7,62.9,46.4,46.3,32.4,23.2,57,33,22,30.09,29.91,14,4,20,0.00
2014-3-12,74.8,61.6,53.8,52.2,28.8,20.5,60,31,17,30.04,29.91,21,9,29,0.02
2014-3-13,69.1,53.8,43.7,49.8,44.8,28.1,99,74,35,30.11,29.90,8,3,11,0.00
2014-3-14,72.7,56.4,40.6,51.8,44.0,36.4,99,68,30,30.21,30.03,9,3,11,0.00
2014-3-15,81.9,65.9,46.8,53.7,36.9,24.4,79,40,15,30.31,30.11,12,4,18,0.00
2014-3-16,87.1,73.6,57.6,37.2,27.6,22.0,25,18,15,30.25,30.11,11,6,13,0.00
2014-3-17,77.0,60.8,47.7,52.9,38.2,20.3,99,48,23,30.20,29.81,8,3,11,0.00
2014-3-18,72.1,58.1,42.1,53.5,43.5,25.7,99,65,25,29.96,29.81,11,5,19,0.01
2014-3-19,76.6,63.4,49.1,47.8,30.0,16.6,62,30,16,30.15,29.96,11,4,13,0.00
2014-3-20,74.3,60.5,47.3,53.2,33.9,19.4,93,40,19,30.13,29.92,7,2,9,0.00
2014-3-21,64.6,52.4,41.5,48.8,46.2,39.1,99,81,56,30.09,29.95,8,3,11,0.00
2014-3-22,62.1,51.1,43.0,49.9,47.2,42.5,99,88,58,30.17,30.05,8,2,14,0.00
2014-3-23,69.8,55.0,43.0,53.4,49.3,42.5,99,84,55,30.18,30.01,6,2,8,0.00
2014-3-24,67.3,53.4,46.0,56.3,50.5,45.2,99,91,63,30.17,30.03,6,2,9,0.01
2014-3-25,58.5,51.2,48.6,55.2,50.3,48.3,99,97,77,30.09,29.95,5,2,10,0.04
2014-3-26,55.9,49.0,46.4,50.1,46.9,42.3,99,93,60,30.04,29.94,15,6,18,0.24
2014-3-27,59.5,48.9,39.7,50.3,44.1,39.5,99,85,52,30.19,30.03,9,4,12,0.02
2014-3-28,68.0,53.9,38.8,51.0,46.0,38.6,99,78,47,30.21,30.07,9,2,11,0.00
2014-3-29,75.9,59.8,46.0,51.9,48.1,44.3,98,70,39,30.23,29.99,7,2,11,0.00
2014-3-30,65.5,53.2,43.0,53.1,44.4,33.9,99,75,42,30.13,29.99,10,4,14,0.04
2014-3-31,62.8,49.8,37.2,47.0,41.7,34.4,98,76,50,30.13,29.99,11,3,14,0.00
2014-4-1,56.5,48.2,43.2,46.9,41.3,30.9,99,80,42,30.06,29.98,9,4,15,0.54
2014-4-2,52.9,44.8,36.9,44.3,40.4,35.7,99,86,57,30.16,29.98,12,4,16,0.14
2014-4-3,63.5,50.4,35.1,46.3,40.2,31.6,98,71,44,30.19,30.03,8,3,11,0.00
2014-4-4,59.7,48.5,36.1,45.2,40.6,32.8,99,76,51,30.10,29.96,8,2,11,0.00
2014-4-5,61.0,48.9,33.8,48.5,42.3,33.3,99,80,61,30.11,29.96,8,2,10,0.00
2014-4-6,77.9,62.2,43.0,41.8,33.1,26.2,85,38,18,30.13,30.00,12,5,18,0.00
2014-4-7,83.3,70.8,54.9,40.5,33.3,26.5,46,26,17,30.18,30.03,9,3,14,0.00
2014-4-8,89.4,71.5,54.5,43.0,34.2,23.2,45,27,16,30.19,29.99,8,3,11,0.00
2014-4-9,90.0,71.4,52.9,38.6,28.6,18.0,34,21,14,30.16,29.92,7,3,11,0.00
2014-4-10,86.7,69.2,55.9,37.2,29.3,20.6,44,24,15,30.08,29.90,6,2,8,0.00
2014-4-11,80.8,65.1,44.1,48.4,30.7,16.7,75,31,16,30.02,29.84,7,3,8,0.00
2014-4-12,62.1,52.4,44.8,49.3,46.6,26.5,99,83,40,30.04,29.91,8,2,9,0.00
2014-4-13,62.8,52.3,46.2,49.6,47.2,45.2,99,84,59,30.10,29.98,10,2,11,0.00
2014-4-14,81.5,65.4,43.3,46.3,37.3,26.9,99,43,15,30.11,29.98,14,4,18,0.00
2014-4-15,82.2,66.8,51.4,50.0,38.2,28.1,59,36,16,30.08,29.83,9,3,13,0.00
2014-4-16,74.8,61.6,48.4,52.7,39.6,24.5,80,45,27,29.95,29.78,8,2,11,0.00
2014-4-17,70.3,58.2,43.5,55.2,49.2,30.4,99,74,34,29.99,29.84,6,2,8,0.00
2014-4-18,68.7,55.7,47.1,55.1,50.9,46.9,99,86,50,30.02,29.87,7,3,12,0.01
2014-4-19,73.8,58.9,46.0,54.9,51.2,45.2,99,78,51,30.12,29.96,8,3,11,0.00
2014-4-20,79.3,65.1,50.5,56.1,51.9,47.1,93,65,44,30.13,29.99,6,2,10,0.00
2014-4-21,82.9,66.5,51.6,56.1,49.8,44.5,84,59,26,30.10,29.94,8,2,9,0.00
2014-4-22,67.1,55.2,46.9,52.5,49.4,44.5,99,83,51,30.06,29.90,10,3,13,0.00
2014-4-23,70.0,55.1,41.7,51.7,47.4,41.5,99,78,52,30.03,29.90,9,3,12,0.00
2014-4-24,74.1,60.2,47.1,50.9,46.0,38.0,93,63,36,30.03,29.91,9,3,11,0.00
2014-4-25,65.1,52.9,43.2,51.9,44.7,-99.9,99,79,54,30.01,29.85,8,-18,13,0.26
2014-4-26,59.4,48.0,40.8,47.8,42.5,40.4,99,83,51,30.08,29.82,9,5,17,0.66
2014-4-27,63.7,52.6,43.5,49.3,45.6,41.6,99,79,55,30.10,29.97,8,2,11,0.00
2014-4-28,80.6,62.6,41.5,52.7,45.3,30.8,95,58,23,30.09,29.88,9,3,12,0.00
2014-4-29,84.6,74.0,66.6,35.8,28.7,23.0,28,19,15,30.07,29.96,21,8,30,0.15
2014-4-30,82.2,73.2,63.3,30.1,25.9,22.7,21,17,15,30.07,29.93,28,10,59,0.92
2014-5-1,89.2,73.7,58.8,36.7,28.1,22.5,32,19,15,30.10,29.93,13,5,17,0.00
2014-5-2,91.6,78.7,63.0,37.4,30.8,22.4,25,18,14,30.05,29.89,11,4,15,0.00
2014-5-3,89.4,73.4,57.6,44.1,35.5,24.8,44,27,16,30.02,29.86,7,3,10,0.00
2014-5-4,83.8,68.5,51.6,52.0,34.3,21.5,48,30,16,30.06,29.90,8,3,12,0.00
2014-5-5,71.2,60.3,51.1,52.5,41.9,21.2,99,55,23,30.05,29.94,8,2,10,0.00
2014-5-6,53.6,49.2,45.7,50.8,45.8,41.7,99,89,66,29.98,29.89,12,4,15,0.01
2014-5-7,62.6,53.2,46.4,50.0,48.0,46.1,99,84,61,30.08,29.93,10,3,13,0.00
2014-5-8,66.4,55.1,46.8,50.0,47.2,45.0,99,77,53,30.15,30.03,8,3,13,0.00
2014-5-9,71.2,57.7,45.1,53.6,49.5,44.1,99,77,51,30.16,29.99,8,2,12,0.00
2014-5-10,67.3,55.6,45.1,54.3,50.3,44.3,99,84,62,30.03,29.85,9,3,12,0.00
2014-5-11,76.6,59.8,43.3,48.5,32.2,20.1,99,45,16,30.05,29.85,15,5,21,0.17
2014-5-12,86.5,71.4,56.3,35.5,27.2,21.6,26,19,15,30.08,29.93,11,5,16,0.00
2014-5-13,87.1,76.4,66.6,35.8,28.8,23.0,20,17,15,30.12,30.01,13,6,21,0.00
2014-5-14,94.3,79.8,68.9,38.5,30.0,23.0,19,16,14,30.11,29.94,19,7,27,0.00
2014-5-15,95.2,83.5,70.2,38.5,32.6,23.3,19,16,13,30.07,29.93,11,4,15,0.00
2014-5-16,94.3,79.5,64.8,37.7,32.3,24.2,35,19,14,30.07,29.89,8,3,13,0.00
2014-5-17,85.3,72.6,56.3,56.7,42.6,26.1,64,35,21,29.99,29.82,8,2,11,0.00
2014-5-18,75.7,64.3,52.9,55.2,46.6,29.6,88,55,32,29.97,29.86,7,3,10,0.00
2014-5-19,70.2,59.4,51.1,54.5,51.8,49.1,98,78,51,30.02,29.92,8,4,11,0.00
2014-5-20,62.2,54.3,48.4,51.7,48.5,45.5,99,82,56,30.05,29.99,11,4,15,0.00
2014-5-21,66.2,54.5,45.3,50.6,45.1,-99.9,99,77,56,30.06,29.96,8,-19,12,0.00
2014-5-22,59.2,45.3,48.7,53.1,26.3,-99.9,99,76,72,30.08,30.01,6,-165,8,0.00
2014-5-23,66.7,49.7,51.4,55.4,27.6,-99.9,99,67,59,30.09,29.99,8,-164,11,0.00
2014-5-24,61.5,54.8,53.1,57.1,51.2,-99.9,99,93,81,30.09,29.98,4,-19,8,0.00
2014-5-25,80.8,57.7,49.3,60.9,36.6,-99.9,99,64,45,30.03,29.87,6,-123,8,0.00
2014-5-26,84.4,71.7,56.7,60.2,55.3,48.7,86,59,32,30.03,29.89,7,2,10,0.00
2014-5-27,88.0,70.9,58.8,60.4,52.7,-99.9,84,58,33,30.03,29.91,8,-19,11,0.00
2014-5-28,82.2,69.9,56.5,58.1,52.9,45.0,78,56,33,29.99,29.83,8,2,10,0.00
2014-5-29,83.3,67.8,53.4,57.4,52.7,36.0,96,60,35,29.97,29.84,6,2,9,0.00
2014-5-30,84.4,68.9,53.6,60.4,52.8,46.9,88,60,33,29.98,29.82,8,3,13,0.00
2014-5-31,84.6,69.4,52.2,55.5,45.7,30.7,78,45,22,29.97,29.85,8,3,10,0.00
2014-6-1,83.5,70.0,53.1,53.9,40.2,20.1,67,36,19,29.97,29.81,9,3,11,0.00
2014-6-2,84.0,68.6,52.3,56.2,39.9,16.6,63,37,17,29.93,29.81,9,3,11,0.00
2014-6-6,76.8,68.5,51.6,57.7,53.6,38.1,92,61,38,29.92,29.80,8,3,10,0.00
2014-6-7,78.3,59.1,46.9,58.2,44.0,-99.9,99,70,47,29.91,29.76,8,-60,11,0.00
2014-6-8,84.9,61.2,54.0,60.4,27.9,-99.9,93,45,40,29.86,29.73,8,-185,10,0.00
2014-6-9,94.8,73.4,65.1,62.0,50.6,-99.9,73,51,25,29.84,29.73,6,-39,38,0.00
2014-6-10,76.6,66.9,49.8,59.8,55.2,45.2,99,68,50,29.99,29.77,6,2,10,0.18
2014-6-11,79.7,64.7,46.9,59.1,52.0,32.5,99,68,32,30.00,29.85,7,2,11,0.07
2014-6-12,81.3,68.3,53.6,57.5,50.3,33.7,89,56,18,30.03,29.89,6,2,11,0.00
2014-6-13,79.0,60.4,51.8,55.4,34.5,-99.9,85,50,24,30.02,29.87,8,-102,13,0.00
2014-6-14,78.8,39.2,51.1,56.2,-17.8,-99.9,73,26,34,29.94,29.82,8,-456,11,0.33
2014-6-15,78.8,46.0,50.7,55.0,1.4,-99.9,99,39,27,29.98,29.82,7,-331,11,0.00
2014-6-16,77.9,61.5,45.7,57.5,50.4,42.5,99,71,41,29.99,29.86,10,2,11,0.01
2014-6-17,74.5,55.3,48.9,52.9,27.8,-99.9,83,49,37,30.01,29.91,10,-128,13,0.02
2014-6-18,77.7,60.1,43.7,54.1,34.6,-99.9,71,46,34,30.03,29.90,7,-63,9,0.00
2014-6-19,86.5,69.2,51.4,59.4,47.1,29.9,78,48,18,30.01,29.88,7,2,10,0.00
2014-6-20,90.5,63.9,59.4,63.2,22.7,-99.9,96,33,22,29.98,29.85,6,-185,151,0.00
2014-6-21,88.3,65.9,57.9,57.2,23.6,-99.9,50,28,19,29.97,29.83,24,-143,24,0.00
2014-6-22,81.5,45.3,59.5,58.0,-7.7,-99.9,72,27,18,29.97,29.86,7,-373,9,0.00
2014-6-23,78.6,52.2,57.9,58.9,16.0,-99.9,89,45,46,30.01,29.89,8,-248,9,0.00
2014-6-24,81.0,47.5,54.1,59.2,4.2,-99.9,97,40,45,29.99,29.89,8,-331,11,0.00
2014-6-25,82.0,61.8,57.4,59.0,36.6,-99.9,90,54,43,29.99,29.83,8,-123,11,0.00
2014-6-26,79.7,54.0,54.5,61.6,27.5,-99.9,99,60,49,29.97,29.86,8,-186,11,0.00
2014-6-27,78.8,62.6,55.9,60.9,51.4,-99.9,99,76,53,29.95,29.84,7,-39,10,0.00
2014-6-28,81.5,52.8,57.6,60.9,12.3,-99.9,93,41,49,29.92,29.82,6,-290,8,0.00
2014-6-29,86.2,67.6,59.9,62.6,45.3,-99.9,85,56,41,29.95,29.82,6,-81,9,0.00
2014-6-30,84.2,70.4,56.3,62.1,58.3,52.1,93,68,47,29.95,29.81,7,2,11,0.00
2014-7-1,85.8,72.5,60.3,64.5,60.3,57.1,94,69,45,29.91,29.80,8,2,10,0.00
2014-7-2,87.6,74.1,60.3,63.0,59.7,49.4,91,63,44,29.95,29.82,7,2,9,0.00
2014-7-3,93.7,78.7,60.3,62.2,57.0,41.0,84,51,17,29.97,29.82,6,2,9,0.00
2014-7-4,92.1,79.9,65.8,63.9,53.0,33.0,62,41,22,30.06,29.92,9,3,11,0.00
2014-7-5,90.0,79.6,66.7,54.6,46.4,35.9,54,32,22,30.10,29.97,8,3,13,0.00
2014-7-6,90.1,77.8,64.4,56.8,44.6,32.3,51,32,21,30.09,29.89,8,3,14,0.00
2014-7-7,90.9,78.4,62.8,58.3,44.9,25.8,47,31,17,29.99,29.84,8,3,12,0.00
2014-7-8,87.8,77.5,66.0,62.3,48.1,23.0,75,39,16,30.02,29.86,8,3,11,0.00
2014-7-9,87.3,75.3,58.3,62.0,49.7,23.1,89,46,16,30.04,29.88,8,3,9,0.00
2014-7-10,84.6,60.6,53.8,61.1,48.9,45.6,92,57,44,30.05,29.88,8,2,10,0.00
2014-7-11,83.3,70.7,58.6,61.0,56.5,51.1,85,63,42,30.07,29.95,8,3,11,0.00
2014-7-12,84.9,70.9,55.9,61.9,56.0,41.4,85,61,43,30.07,29.92,9,3,15,0.00
2014-7-13,89.2,70.4,63.5,63.8,57.5,54.6,77,63,43,30.01,29.84,4,1,8,0.00
2014-7-14,92.3,61.5,66.6,64.8,50.8,52.7,82,54,39,30.05,29.90,6,1,8,0.00
2014-7-15,80.8,66.9,57.2,64.4,58.0,54.7,99,71,50,30.12,30.01,5,2,8,0.00
2014-7-16,80.1,65.7,54.7,64.4,57.3,53.8,99,76,47,30.10,29.98,8,2,11,0.01
2014-7-17,76.1,45.1,51.4,59.6,38.9,51.2,99,52,49,30.12,29.99,9,2,13,0.01
2014-7-18,77.2,52.5,51.1,59.8,45.6,50.8,99,62,50,30.08,29.96,6,2,9,0.00
2014-7-19,77.5,51.8,56.8,61.7,45.4,55.1,96,60,53,30.03,29.94,7,2,9,0.30
2014-7-20,80.1,52.1,54.1,61.4,44.3,53.3,99,54,52,30.10,29.95,8,2,12,0.00
2014-7-21,82.9,72.5,55.8,61.3,59.1,54.8,99,65,47,30.09,29.99,9,3,14,0.00
2014-7-22,89.2,78.4,58.3,62.3,57.7,45.7,93,51,32,30.10,29.97,9,3,11,0.00
2014-7-23,95.0,76.0,62.6,61.3,44.7,31.7,52,29,22,30.08,29.88,7,3,12,0.00
2014-7-24,97.5,36.8,70.5,61.5,17.7,31.0,46,10,12,29.92,29.77,6,1,8,0.00
2014-7-25,93.2,60.5,65.7,63.8,41.4,44.6,67,33,19,29.98,29.83,7,2,10,0.00
2014-7-26,88.7,68.9,69.1,64.8,48.3,43.8,73,38,23,30.04,29.90,8,2,11,0.00
2014-7-27,85.1,76.9,66.0,62.6,56.6,52.4,69,51,37,30.03,29.99,4,2,6,0.00
2014-8-9,66.4,64.2,63.0,56.7,55.1,53.6,80,73,67,30.04,30.03,2,1,2,0.00
2014-8-10,87.4,75.8,61.5,63.3,59.7,46.9,94,60,40,30.02,29.90,8,2,11,0.00
2014-8-11,90.9,76.2,63.0,63.8,56.6,47.9,79,54,23,30.01,29.90,8,2,9,0.00
2014-8-12,86.7,73.1,62.2,63.8,59.6,54.7,91,65,41,30.03,29.90,8,2,12,0.00
2014-8-13,86.7,72.2,56.7,63.6,60.8,56.4,99,70,45,30.06,29.90,9,2,12,0.00
2014-8-14,89.8,77.7,66.7,61.5,56.5,51.7,67,50,28,30.02,29.89,8,3,13,0.00
2014-8-15,92.1,78.0,62.6,63.6,57.3,51.8,74,51,34,30.05,29.91,8,3,12,0.00
2014-8-16,91.4,78.4,64.6,59.6,54.9,49.1,76,48,26,30.07,29.91,9,3,12,0.00
2014-8-17,93.2,79.3,63.3,56.0,49.5,37.8,60,37,21,30.04,29.85,9,3,14,0.00
2014-8-18,94.6,78.1,60.1,63.5,53.5,34.2,64,44,28,29.95,29.77,8,3,10,0.00
2014-8-19,79.7,67.0,53.4,61.4,55.9,38.6,99,69,44,29.97,29.85,8,3,13,0.00
2014-8-20,79.9,67.3,57.4,60.9,56.9,52.1,92,71,50,30.01,29.88,6,2,11,0.00
2014-8-21,84.9,72.4,57.9,62.6,59.6,55.0,97,66,45,30.01,29.88,8,3,11,0.00
2014-8-22,86.5,71.8,57.9,62.6,54.2,32.9,90,57,21,30.05,29.90,9,2,11,0.00
2014-8-23,82.4,70.4,57.4,58.9,42.1,21.9,63,37,20,30.02,29.87,8,3,11,0.00
2014-8-24,85.1,70.3,56.7,59.0,48.9,35.8,77,48,21,29.98,29.82,7,3,10,0.00
2014-8-25,84.0,72.6,61.7,60.0,50.8,40.6,78,48,26,30.02,29.86,9,2,11,0.00
2014-8-26,86.5,74.5,61.5,61.6,54.4,34.8,87,53,30,30.06,29.92,8,3,11,0.00
2014-8-27,90.5,78.2,62.8,53.2,47.4,41.7,53,36,22,30.09,29.97,9,3,12,0.00
2014-8-28,95.7,80.4,64.6,56.3,51.5,45.3,62,39,24,30.09,29.87,8,3,14,0.00
2014-8-29,93.9,79.8,65.3,61.0,47.6,28.6,58,34,16,29.98,29.77,7,2,9,0.00
2014-8-30,95.4,80.0,62.8,60.4,46.5,27.2,53,32,13,29.90,29.73,6,2,10,0.00
2014-8-31,91.4,77.6,63.7,62.2,51.5,38.7,64,42,22,29.88,29.76,8,2,11,0.00
2014-9-1,90.5,77.9,67.3,60.8,44.7,23.2,55,33,15,29.87,29.75,7,4,8,0.00
2014-9-2,88.3,75.2,60.3,62.6,51.1,24.1,73,46,18,29.91,29.76,8,3,11,0.00
2014-9-3,82.9,69.6,54.7,62.4,57.4,49.0,99,68,43,29.90,29.70,8,2,11,0.00
2014-9-4,82.9,67.6,53.8,69.2,59.0,52.9,99,77,46,29.86,29.74,8,2,11,0.04
2014-9-5,92.1,76.7,58.8,63.3,58.2,50.8,88,56,25,29.94,29.79,8,2,10,0.00
2014-9-6,95.9,81.4,67.6,66.5,58.5,29.7,75,48,21,29.94,29.78,8,3,10,0.00
2014-9-7,94.6,84.6,72.0,64.0,57.6,49.9,52,40,31,29.87,29.73,8,3,12,0.00
2014-9-8,88.9,75.7,62.1,57.2,49.0,38.1,84,41,24,29.95,29.82,6,2,11,0.02
2014-9-9,86.5,73.7,59.9,57.8,49.0,36.9,74,44,22,30.00,29.85,9,3,15,0.00
2014-9-10,91.4,76.5,60.3,56.5,48.5,38.0,61,40,20,29.98,29.79,8,3,11,0.00
2014-9-11,92.8,79.9,66.4,61.6,55.2,52.5,65,45,27,29.95,29.77,8,2,14,0.00
2014-9-12,96.4,81.1,66.0,62.1,54.4,43.1,64,42,26,29.91,29.73,8,3,11,0.00
2014-9-13,100.2,85.3,70.9,60.9,49.1,37.7,51,30,12,29.86,29.68,9,3,12,0.00
2014-9-14,101.8,88.2,74.7,57.6,52.1,45.4,44,30,15,29.83,29.67,8,4,13,0.00
2014-9-15,100.9,87.7,74.8,59.7,53.5,44.3,45,33,15,29.86,29.72,10,3,14,0.00
2014-9-16,99.9,86.5,72.1,66.7,58.0,52.1,83,40,23,29.84,29.70,12,4,17,0.09
2014-9-17,93.9,82.0,66.6,66.2,61.0,52.2,77,50,37,29.88,29.71,11,4,15,0.00
2014-9-18,80.6,68.8,57.7,64.6,59.3,52.2,99,74,53,29.95,29.82,9,3,12,0.00
2014-9-19,78.3,66.4,58.1,61.8,59.8,57.7,99,82,56,29.97,29.84,6,2,11,0.00
2014-9-20,77.5,64.7,55.6,64.5,59.1,53.8,99,84,57,30.02,29.89,7,2,11,0.01
2014-9-21,79.7,64.7,50.5,61.1,56.8,50.3,99,79,47,30.05,29.92,7,2,11,0.01
2014-9-22,84.9,72.6,58.6,62.2,54.9,43.9,89,56,38,30.04,29.89,8,2,10,0.00
2014-9-23,91.4,77.8,59.4,60.7,47.2,30.6,71,37,20,30.03,29.86,6,2,8,0.00
2014-9-24,94.5,79.8,64.8,53.3,46.2,39.2,55,33,16,29.98,29.81,8,3,11,0.00
2014-9-25,93.0,78.0,65.7,58.7,50.0,41.7,70,40,20,29.97,29.86,8,3,11,0.00
2014-9-26,82.8,69.0,52.2,61.2,55.7,49.3,98,67,36,29.99,29.82,8,2,13,0.00
2014-9-27,71.1,59.4,49.5,57.1,53.0,48.8,99,81,53,30.00,29.83,8,3,12,0.00
2014-9-28,73.4,60.1,51.4,57.3,54.2,51.2,99,83,47,30.02,29.89,10,3,16,0.00
2014-9-29,79.3,63.9,50.4,58.8,53.7,48.8,99,73,44,30.01,29.84,8,2,11,0.00
2014-9-30,85.5,69.6,55.9,54.0,48.6,42.7,78,51,27,29.97,29.76,8,3,11,0.00
2014-10-1,82.9,68.4,53.4,61.4,52.7,44.3,86,59,35,29.93,29.75,8,2,11,0.00
2014-10-2,94.3,79.8,65.5,46.9,33.8,25.6,38,20,14,30.05,29.87,10,5,17,0.00
2014-10-3,98.6,82.5,70.2,38.4,31.9,23.5,22,16,11,30.05,29.91,11,5,17,0.00
2014-10-4,97.3,83.0,68.5,38.1,31.6,24.4,20,16,12,30.03,29.84,9,4,11,0.00
2014-10-5,96.4,79.5,63.9,39.1,31.8,23.9,28,18,13,30.00,29.83,8,3,11,0.00
2014-10-6,92.3,75.7,60.3,38.6,31.0,22.3,31,20,14,30.00,29.81,7,2,10,0.00
2014-10-7,92.5,76.1,64.0,40.9,33.0,26.6,39,21,14,29.97,29.79,8,2,13,0.00
2014-10-8,84.7,72.7,60.6,55.0,44.1,32.9,66,38,20,29.95,29.80,9,2,12,0.00
2014-10-9,77.0,65.7,52.3,59.2,52.7,38.0,93,65,41,30.03,29.90,6,2,8,0.00
2014-10-10,81.3,68.8,54.9,59.7,53.3,47.8,89,60,33,30.04,29.92,8,2,11,0.00
2014-10-11,88.0,73.7,60.6,61.1,48.9,35.3,74,44,20,30.02,29.88,6,3,9,0.00
2014-10-12,86.0,69.0,57.6,61.6,50.0,34.7,87,53,26,30.01,29.84,7,2,10,0.00
2014-10-13,88.9,76.0,60.6,60.6,43.7,28.8,73,35,15,30.06,29.93,8,3,12,0.00
2014-10-14,82.9,67.9,55.8,59.3,49.6,34.8,99,56,26,30.05,29.90,6,2,8,0.00
2014-10-15,74.3,61.1,50.5,57.6,54.2,50.1,99,81,46,30.08,29.94,7,2,11,0.00
2014-10-16,74.5,61.5,50.2,59.2,54.5,49.9,99,81,48,30.08,29.94,8,2,12,0.00
2014-10-17,73.0,60.4,51.8,59.6,56.1,51.3,99,87,57,30.04,29.92,8,2,11,0.00
2014-10-18,72.9,61.0,50.5,58.2,55.5,50.3,99,84,53,30.01,29.85,8,2,11,0.00
2014-10-19,76.6,62.5,50.4,60.5,55.0,50.1,99,80,50,29.98,29.84,8,2,11,0.00
2014-10-20,78.6,62.7,52.0,61.2,57.0,51.4,99,84,49,29.99,29.86,6,2,9,0.00
2014-10-21,79.5,64.6,52.0,58.2,52.2,41.1,99,69,31,29.99,29.83,7,2,11,0.00
2014-10-22,87.4,70.5,52.7,56.3,46.8,32.4,73,46,16,30.02,29.88,8,2,11,0.00
2014-10-23,89.2,76.2,63.7,53.7,41.8,29.7,58,31,15,30.03,29.91,8,2,9,0.00
2014-10-24,89.8,74.7,59.9,43.7,34.5,23.1,46,25,15,30.08,29.92,10,2,14,0.00
2014-10-25,81.9,69.9,56.5,53.8,46.0,40.4,77,45,23,30.10,29.99,7,2,11,0.00
2014-10-26,74.7,59.8,50.9,59.5,52.5,41.2,98,78,52,30.10,29.90,5,2,11,0.00
2014-10-27,73.4,60.5,47.8,57.7,52.3,45.0,99,77,46,30.03,29.88,8,2,11,0.00
2014-10-28,80.1,65.1,50.4,58.6,53.8,48.0,99,70,42,30.10,29.94,7,2,10,0.00
2014-10-29,86.2,72.5,57.6,52.9,41.0,30.8,62,34,18,30.09,29.94,8,3,12,0.00
2014-10-30,85.3,66.4,54.7,59.7,45.6,37.3,99,52,20,30.08,29.92,8,2,13,0.00
2014-10-31,67.8,58.0,51.3,56.4,53.3,45.8,99,85,58,30.05,29.91,7,2,11,0.04
2014-11-1,57.2,52.5,47.8,54.2,49.9,45.3,99,92,66,30.06,29.90,11,4,15,0.65
2014-11-2,61.9,50.7,41.2,56.9,45.6,40.9,99,84,55,30.16,30.01,8,2,14,0.07
2014-11-3,69.6,56.4,41.9,42.5,30.7,17.8,99,44,19,30.22,30.07,15,4,20,0.00
2014-11-4,75.7,64.1,53.6,29.8,23.4,17.5,27,21,17,30.22,30.07,8,4,14,0.00
2014-11-5,86.2,73.5,64.4,35.9,27.4,22.5,21,18,15,30.15,29.99,16,6,21,0.00
2014-11-6,89.1,76.1,64.8,37.2,29.7,25.3,26,18,15,30.18,30.05,11,5,12,0.00
2014-11-7,90.9,73.6,59.2,37.9,30.3,23.8,33,21,14,30.18,29.97,8,3,13,0.00
2014-11-8,89.2,75.5,60.8,38.8,31.3,24.5,33,20,15,30.09,29.95,9,3,12,0.00
2014-11-9,86.7,67.7,51.6,55.3,38.6,26.9,81,38,18,30.07,29.80,6,2,9,0.00
2014-11-10,70.5,57.7,42.1,54.7,46.6,33.1,99,70,39,29.98,29.84,5,2,9,0.00
2014-11-11,59.9,54.9,52.0,53.1,50.8,48.7,98,87,69,30.02,29.94,8,2,11,0.00
2014-11-12,63.7,54.4,46.6,53.7,50.8,46.3,99,89,58,30.12,29.96,6,2,11,0.00
2014-11-13,66.6,55.1,47.8,55.5,50.8,47.6,99,87,56,30.12,30.02,6,2,9,0.00
2014-11-14,65.5,55.3,46.4,58.4,53.4,46.1,99,94,67,30.12,29.99,8,2,9,0.19
2014-11-15,66.2,54.1,45.9,57.1,51.7,45.1,99,93,65,30.15,30.01,7,2,10,0.01
2014-11-16,66.4,57.2,46.8,50.3,28.5,20.2,99,41,19,30.20,30.09,18,8,27,0.14
2014-11-17,71.4,61.8,55.8,25.7,22.5,20.5,25,22,18,30.19,30.06,19,9,27,0.19
2014-11-18,76.8,61.7,45.9,31.4,23.7,21.1,42,24,16,30.25,30.08,16,6,21,0.00
2014-11-19,70.5,56.1,44.8,49.9,30.0,13.2,78,41,18,30.25,30.07,8,2,10,0.00
2014-11-20,65.7,53.8,42.3,53.9,44.2,19.4,99,72,33,30.19,30.03,7,2,10,0.04
2014-11-21,64.6,53.9,46.8,55.7,49.4,43.4,99,86,57,30.15,29.95,6,2,11,0.15
2014-11-22,69.8,55.6,44.6,50.9,44.1,38.9,97,69,33,30.17,30.02,8,2,13,0.00
2014-11-23,71.1,59.7,45.0,49.0,30.3,16.6,90,40,17,30.22,30.05,12,6,16,0.00
2014-11-24,73.8,63.3,52.0,30.2,22.5,15.4,24,21,17,30.35,30.16,18,7,27,0.00
2014-11-25,78.3,64.9,52.3,32.3,24.3,17.6,27,22,17,30.41,30.24,10,5,17,0.00
2014-11-26,88.7,72.9,52.9,35.8,28.1,16.5,25,19,15,30.35,30.11,9,4,13,0.00
2014-11-27,87.3,74.4,58.1,37.2,28.6,21.5,26,19,15,30.20,29.99,13,4,16,0.00
2014-11-28,84.6,65.1,53.2,36.4,27.4,20.2,45,26,15,30.09,29.88,5,2,8,0.00
2014-11-29,77.2,61.0,49.1,47.2,32.4,24.5,84,39,17,29.98,29.81,8,3,10,0.00
2014-11-30,57.9,54.3,50.5,54.1,52.5,47.7,98,93,79,30.18,29.96,4,2,10,0.48
2014-12-1,67.3,57.4,46.9,54.7,48.8,38.9,99,75,44,30.23,30.05,8,3,11,0.02
2014-12-2,62.8,55.7,51.1,54.0,48.2,36.6,99,80,38,30.07,29.93,8,4,12,2.16
2014-12-3,61.9,58.1,55.0,61.3,57.7,54.2,99,99,97,30.04,29.95,8,2,10,2.07
2014-12-4,68.4,57.5,48.0,61.7,54.5,47.8,99,91,59,30.16,29.97,7,2,9,0.65
2014-12-5,66.6,56.1,49.3,55.1,51.5,47.5,99,86,57,30.22,30.07,7,2,9,0.00
2014-12-6,69.6,58.8,47.8,54.7,50.5,47.6,99,76,54,30.26,30.13,8,3,12,0.00
2014-12-7,77.9,63.5,52.5,53.2,46.3,39.5,84,55,26,30.25,30.09,11,5,17,0.00
2014-12-8,78.6,64.6,53.1,52.3,44.0,39.8,87,49,25,30.17,30.02,8,2,11,0.00
2014-12-9,77.4,63.8,51.1,53.7,42.0,31.9,85,48,22,30.17,29.98,6,2,11,0.00
2014-12-10,74.5,60.5,49.6,51.2,40.4,31.8,78,49,27,30.10,29.95,11,2,15,0.00
2014-12-11,69.6,56.9,50.5,54.7,51.0,43.6,98,82,55,30.04,29.91,5,2,11,0.00
2014-12-12,52.9,48.9,44.6,51.8,48.5,43.8,99,98,93,30.15,29.93,11,3,21,2.14
2014-12-13,58.6,47.9,38.7,49.1,43.6,38.4,99,87,52,30.24,30.09,6,2,8,0.04
2014-12-14,61.5,49.1,37.8,45.5,41.7,37.5,99,78,51,30.20,30.05,8,2,9,0.00
2014-12-15,61.3,51.4,43.7,44.9,38.9,33.8,97,64,43,30.13,29.98,7,2,8,0.00
2014-12-16,51.8,48.1,44.8,49.3,47.3,44.0,99,97,87,30.11,30.00,9,3,12,0.14
2014-12-17,55.2,47.7,41.5,53.5,46.5,41.3,99,96,85,30.22,30.02,8,2,11,0.38
2014-12-18,58.1,48.5,41.9,50.4,45.1,41.6,99,89,59,30.29,30.16,5,1,8,0.00
2014-12-19,63.9,49.8,40.6,49.9,44.8,40.4,99,85,50,30.30,30.17,6,2,10,0.00
2014-12-20,59.5,48.3,40.5,52.8,46.5,40.2,99,94,67,30.26,30.16,4,1,8,0.00
2014-12-21,69.1,54.9,43.7,56.6,48.6,43.2,99,81,59,30.24,30.03,4,1,7,0.00
2014-12-22,80.1,62.0,47.3,52.9,46.4,37.5,95,61,29,30.13,29.93,6,1,10,0.00
2014-12-23,78.1,68.0,58.3,40.2,34.1,28.5,51,29,22,30.16,29.99,13,5,17,0.00
2014-12-24,73.0,59.0,47.5,50.8,38.0,30.4,99,48,28,30.18,29.89,10,3,13,0.00
2014-12-25,58.5,50.7,43.7,50.6,29.8,14.0,99,53,24,29.98,29.82,14,5,21,0.07
2014-12-26,59.0,47.8,42.8,22.3,13.1,9.8,28,24,22,30.25,29.98,15,7,23,0.05
2014-12-27,58.5,45.6,36.1,24.5,14.6,10.4,51,29,23,30.41,30.24,12,5,16,0.00
2014-12-28,58.1,42.5,33.1,36.3,25.1,13.8,78,52,27,30.41,30.17,5,2,10,0.00
2014-12-29,60.6,45.0,32.2,44.9,37.3,26.4,99,76,49,30.27,30.03,5,2,8,0.00
2014-12-30,47.8,41.5,31.6,47.0,40.5,31.4,99,96,85,30.12,29.97,19,3,25,0.27
2014-12-31,43.9,32.5,25.7,31.2,22.2,15.0,99,70,37,30.21,29.98,21,8,36,0.08
2015-1-1,55.4,38.5,25.7,35.7,28.0,18.6,99,69,34,30.25,30.09,7,2,9,0.07
2015-1-2,55.6,41.4,30.6,41.5,33.6,24.0,99,76,35,30.28,30.07,6,2,8,0.00